Página principal
METAR-TAF:

METAR-TAF

Aeroportos :

Nizhnevartovsk, Rússia

latitude: 60-56N, longitude: 076-29E, altura: 54 m

Observação actual do tempo

O boletim foi feito há 20 minutos, às 22:30 UTC
Vento 6 kt de norte
Temperatura 10°C
Humidade 93%
Pressão 1008 hPa
Visibilidade 10 km ou mais
sem nuvens abaixo de 1500 metros e sem cumulonimbus

METAR: USNN 222230Z 01003MPS CAVOK 10/09 Q1008 R03/0///65 NOSIG RMK QFE752

Hora: 03:50 (22:50 UTC)

Previsão

O boletim foi feito há 3 horas e 5 minutos, às 19:45 UTC
Previsão válida de 22 às 21 UTC a 23 às 21 UTC
Vento 6 kt de norte com rajadas de 16 kt
Visibilidade 10 km ou mais
Nuvens fragmentadasa uma altura de 3000 ft

TAF: USNN 221945Z 2221/2321 01003G08MPS 9999 BKN030

Observações e previsões do tempo de mais de 4000 aeroportos (mensagens METAR e TAF).

As estações disponíveis são os pontos amarelos e vermelhos sobre o mapa.

Mova o rato sobre o mapa para ver o nome da estação.

Depois clique no ponto para visualizar as observações e previsões meteorológicas.

Para alterar o mapa : clique nos botões verdes com uma cruz preta para aumentar o zoom; no botão verde com uma pitada de zoom; ou nas setas verdes para mapas adjacentes.


METAR-TAF: